createdAt,value
2023-09-06T00:00:38.725Z,55.99
2023-09-06T00:01:11.353Z,55.94
2023-09-06T00:01:44.010Z,55.93
2023-09-06T00:02:16.584Z,55.90
2023-09-06T00:02:49.146Z,55.87
2023-09-06T00:03:21.953Z,55.84
2023-09-06T00:03:57.292Z,55.85
2023-09-06T00:04:30.047Z,55.87
2023-09-06T00:05:02.780Z,55.97
2023-09-06T00:05:35.370Z,55.97
2023-09-06T00:06:08.007Z,55.93
2023-09-06T00:06:40.596Z,56.04
2023-09-06T00:07:13.124Z,56.03
2023-09-06T00:07:48.574Z,55.99
2023-09-06T00:08:21.059Z,56.07
2023-09-06T00:08:53.554Z,56.09
2023-09-06T00:09:26.119Z,56.01
2023-09-06T00:09:58.684Z,55.91
2023-09-06T00:10:31.213Z,55.93
2023-09-06T00:11:05.431Z,56.04
2023-09-06T00:11:37.981Z,56.05
2023-09-06T00:12:10.601Z,56.15
2023-09-06T00:12:43.959Z,56.19
2023-09-06T00:13:18.138Z,56.08
2023-09-06T00:13:50.651Z,56.01
2023-09-06T00:14:23.192Z,55.93
2023-09-06T00:14:56.299Z,55.88
2023-09-06T00:15:28.866Z,55.88
2023-09-06T00:16:02.620Z,55.92
2023-09-06T00:16:35.177Z,56.01
2023-09-06T00:17:07.696Z,56.10
2023-09-06T00:17:42.408Z,56.06
2023-09-06T00:18:14.980Z,55.96
2023-09-06T00:18:47.632Z,55.98
2023-09-06T00:19:20.162Z,56.02
2023-09-06T00:19:53.846Z,56.04
2023-09-06T00:20:26.375Z,56.05
2023-09-06T00:20:59.133Z,56.03
2023-09-06T00:21:31.648Z,56.07
2023-09-06T00:22:04.283Z,55.95
2023-09-06T00:22:36.812Z,55.97
2023-09-06T00:23:10.716Z,55.96
2023-09-06T00:23:43.453Z,55.92
2023-09-06T00:24:20.545Z,55.97
2023-09-06T00:24:53.237Z,56.00
2023-09-06T00:25:27.790Z,56.01
2023-09-06T00:26:00.286Z,56.02
2023-09-06T00:26:32.776Z,56.04
2023-09-06T00:27:06.167Z,56.10
2023-09-06T00:27:38.722Z,56.08
2023-09-06T00:28:11.572Z,56.12
2023-09-06T00:28:44.060Z,56.11
2023-09-06T00:29:16.546Z,55.97
2023-09-06T00:29:49.068Z,56.03
2023-09-06T00:30:21.665Z,56.05
2023-09-06T00:30:58.730Z,56.08
2023-09-06T00:31:32.887Z,56.04
2023-09-06T00:32:05.509Z,56.05
2023-09-06T00:32:38.057Z,56.06
2023-09-06T00:33:10.647Z,56.08
2023-09-06T00:33:43.729Z,56.15
2023-09-06T00:34:16.608Z,56.19
2023-09-06T00:34:49.876Z,56.11
2023-09-06T00:35:25.436Z,56.07
2023-09-06T00:35:59.341Z,56.06
2023-09-06T00:36:34.062Z,56.16
2023-09-06T00:37:08.529Z,56.17
2023-09-06T00:37:46.762Z,56.19
2023-09-06T00:38:19.442Z,56.13
2023-09-06T00:38:51.991Z,56.11
2023-09-06T00:39:25.114Z,56.24
2023-09-06T00:39:57.665Z,56.17
2023-09-06T00:40:31.332Z,56.03
2023-09-06T00:41:04.064Z,56.08
2023-09-06T00:41:41.393Z,56.05
2023-09-06T00:42:13.961Z,56.15
2023-09-06T00:42:54.760Z,56.23
2023-09-06T00:43:27.298Z,56.28
2023-09-06T00:43:59.808Z,56.34
2023-09-06T00:44:32.509Z,56.25
2023-09-06T00:45:05.305Z,56.22
2023-09-06T00:45:45.587Z,56.27
2023-09-06T00:46:20.844Z,56.29
2023-09-06T00:46:53.466Z,56.21
2023-09-06T00:47:26.748Z,56.16
2023-09-06T00:48:00.260Z,56.24
2023-09-06T00:48:33.400Z,56.28
2023-09-06T00:49:07.604Z,56.23
2023-09-06T00:49:40.219Z,56.25
2023-09-06T00:50:15.561Z,56.24
2023-09-06T00:50:54.414Z,56.28
2023-09-06T00:51:27.898Z,56.20
2023-09-06T00:52:00.518Z,56.26
2023-09-06T00:52:33.636Z,56.27
2023-09-06T00:53:08.398Z,56.35
2023-09-06T00:53:40.930Z,56.29
2023-09-06T00:54:13.498Z,56.29
2023-09-06T00:54:46.128Z,56.31
2023-09-06T00:55:19.963Z,56.33
2023-09-06T00:55:53.288Z,56.37
2023-09-06T00:56:25.837Z,56.41
2023-09-06T00:56:58.398Z,56.40
2023-09-06T00:57:31.480Z,56.41
2023-09-06T00:58:05.617Z,56.47
2023-09-06T00:58:39.404Z,56.42
2023-09-06T00:59:14.013Z,56.43
2023-09-06T00:59:50.071Z,56.48
2023-09-06T01:00:26.056Z,56.47
2023-09-06T01:00:59.350Z,56.46
2023-09-06T01:01:35.367Z,56.47
2023-09-06T01:02:08.165Z,56.47
2023-09-06T01:02:40.840Z,56.54
2023-09-06T01:03:14.419Z,56.52
2023-09-06T01:03:47.103Z,56.56
2023-09-06T01:04:19.727Z,56.58
2023-09-06T01:04:52.293Z,56.59
2023-09-06T01:05:27.703Z,56.66
2023-09-06T01:06:05.596Z,56.70
2023-09-06T01:06:41.650Z,56.71
2023-09-06T01:07:15.007Z,56.75
2023-09-06T01:07:54.501Z,56.80
2023-09-06T01:08:38.774Z,56.80
2023-09-06T01:09:11.595Z,56.89
2023-09-06T01:09:45.155Z,56.91
2023-09-06T01:10:17.736Z,56.90
2023-09-06T01:10:51.769Z,56.95
2023-09-06T01:11:26.522Z,57.09
2023-09-06T01:12:00.273Z,57.19
2023-09-06T01:12:35.672Z,57.05
2023-09-06T01:13:08.345Z,57.17
2023-09-06T01:13:40.871Z,57.43
2023-09-06T01:14:13.567Z,57.49
2023-09-06T01:14:46.088Z,57.52
2023-09-06T01:15:18.667Z,57.51
2023-09-06T01:15:52.960Z,57.49
2023-09-06T01:16:33.877Z,57.51
2023-09-06T01:17:08.710Z,57.51
2023-09-06T01:17:44.448Z,57.52
2023-09-06T01:18:18.023Z,57.56
2023-09-06T01:18:50.740Z,57.57
2023-09-06T01:19:30.052Z,57.54
2023-09-06T01:20:30.250Z,57.55
2023-09-06T01:21:09.362Z,57.53
2023-09-06T01:22:00.602Z,57.50
2023-09-06T01:22:39.614Z,57.58
2023-09-06T01:23:38.386Z,57.55
2023-09-06T01:24:12.077Z,57.49
2023-09-06T01:24:45.518Z,57.49
2023-09-06T01:25:18.463Z,57.45
2023-09-06T01:25:52.054Z,57.40
2023-09-06T01:26:25.308Z,57.42
2023-09-06T01:26:58.722Z,57.44
2023-09-06T01:27:31.240Z,57.34
2023-09-06T01:28:04.481Z,57.38
2023-09-06T01:28:37.070Z,57.38
2023-09-06T01:29:09.974Z,57.41
2023-09-06T01:29:42.717Z,57.45
2023-09-06T01:30:15.653Z,57.43
2023-09-06T01:30:48.601Z,57.44
2023-09-06T01:31:21.277Z,57.45
2023-09-06T01:31:53.984Z,57.47
2023-09-06T01:32:28.533Z,57.51
2023-09-06T01:33:01.107Z,57.44
2023-09-06T01:33:33.688Z,57.39
2023-09-06T01:34:06.225Z,57.39
2023-09-06T01:34:38.834Z,57.46
2023-09-06T01:35:11.877Z,57.48
2023-09-06T01:35:44.397Z,57.51
2023-09-06T01:36:16.941Z,57.44
2023-09-06T01:36:49.526Z,57.40
2023-09-06T01:37:25.035Z,57.34
2023-09-06T01:37:58.117Z,57.35
2023-09-06T01:38:34.100Z,57.35
2023-09-06T01:39:07.707Z,57.35
2023-09-06T01:39:40.221Z,57.31
2023-09-06T01:40:17.037Z,57.22
2023-09-06T01:40:49.619Z,57.26
2023-09-06T01:41:22.164Z,57.29
2023-09-06T01:41:54.651Z,57.33
2023-09-06T01:42:28.093Z,57.36
2023-09-06T01:43:00.642Z,57.35
2023-09-06T01:43:33.224Z,57.28
2023-09-06T01:44:06.040Z,57.22
2023-09-06T01:44:38.659Z,57.21
2023-09-06T01:45:11.507Z,57.24
2023-09-06T01:45:46.064Z,57.31
2023-09-06T01:46:18.732Z,57.32
2023-09-06T01:46:51.409Z,57.26
2023-09-06T01:47:26.455Z,57.24
2023-09-06T01:47:59.022Z,57.21
2023-09-06T01:48:33.705Z,57.23
2023-09-06T01:49:38.705Z,57.20
2023-09-06T01:50:11.230Z,57.25
2023-09-06T01:50:43.885Z,57.33
2023-09-06T01:51:17.444Z,57.23
2023-09-06T01:51:49.996Z,57.23
2023-09-06T01:52:22.523Z,57.29
2023-09-06T01:52:56.314Z,57.20
2023-09-06T01:53:30.353Z,57.14
2023-09-06T01:54:05.518Z,57.27
2023-09-06T01:54:38.011Z,57.26
2023-09-06T01:55:10.613Z,57.16
2023-09-06T01:55:44.275Z,57.16
2023-09-06T01:56:16.767Z,57.13
2023-09-06T01:56:49.250Z,57.14
2023-09-06T01:57:21.752Z,57.17
2023-09-06T01:57:54.345Z,57.15
2023-09-06T01:58:27.235Z,57.15
2023-09-06T01:59:00.018Z,57.21
2023-09-06T01:59:32.943Z,57.15
2023-09-06T02:00:20.466Z,57.05
2023-09-06T02:00:54.477Z,57.03
2023-09-06T02:01:27.200Z,57.11
2023-09-06T02:01:59.820Z,57.07
2023-09-06T02:02:32.430Z,57.13
2023-09-06T02:03:07.768Z,57.12
2023-09-06T02:03:40.504Z,57.09
2023-09-06T02:04:13.197Z,57.04
2023-09-06T02:04:45.764Z,57.05
2023-09-06T02:05:18.250Z,57.04
2023-09-06T02:05:51.351Z,57.08
2023-09-06T02:06:23.891Z,56.99
2023-09-06T02:06:56.439Z,57.02
2023-09-06T02:07:29.118Z,57.00
2023-09-06T02:08:02.021Z,57.00
2023-09-06T02:08:36.590Z,57.03
2023-09-06T02:09:09.410Z,56.98
2023-09-06T02:09:42.056Z,56.97
2023-09-06T02:10:14.835Z,57.01
2023-09-06T02:10:47.353Z,57.09
2023-09-06T02:11:19.834Z,57.07
2023-09-06T02:11:53.347Z,57.00
2023-09-06T02:12:27.220Z,56.98
2023-09-06T02:13:00.225Z,56.97
2023-09-06T02:13:32.780Z,56.97
2023-09-06T02:14:05.311Z,57.01
2023-09-06T02:14:37.823Z,57.03
2023-09-06T02:15:15.180Z,57.03
2023-09-06T02:15:47.836Z,57.01
2023-09-06T02:16:21.055Z,56.99
2023-09-06T02:16:53.598Z,57.05
2023-09-06T02:17:26.429Z,56.93
2023-09-06T02:17:59.070Z,56.84
2023-09-06T02:18:31.936Z,56.93
2023-09-06T02:19:04.553Z,57.04
2023-09-06T02:19:37.056Z,57.15
2023-09-06T02:20:22.712Z,57.15
2023-09-06T02:20:59.720Z,57.10
2023-09-06T02:21:32.340Z,57.14
2023-09-06T02:22:05.455Z,57.12
2023-09-06T02:22:38.253Z,57.13
2023-09-06T02:23:10.777Z,57.10
2023-09-06T02:23:43.270Z,56.97
2023-09-06T02:24:15.795Z,57.01
2023-09-06T02:24:48.311Z,57.01
2023-09-06T02:25:24.587Z,56.97
2023-09-06T02:25:57.602Z,57.01
2023-09-06T02:26:31.610Z,57.02
2023-09-06T02:27:04.303Z,56.98
2023-09-06T02:27:38.050Z,56.99
2023-09-06T02:28:10.596Z,56.91
2023-09-06T02:28:43.137Z,56.91
2023-09-06T02:29:16.997Z,56.99
2023-09-06T02:29:52.750Z,57.07
2023-09-06T02:30:25.330Z,57.03
2023-09-06T02:30:57.832Z,57.05
2023-09-06T02:31:30.471Z,57.00
2023-09-06T02:32:03.120Z,56.99
2023-09-06T02:32:36.104Z,57.03
2023-09-06T02:33:10.756Z,57.02
2023-09-06T02:33:45.304Z,56.98
2023-09-06T02:34:17.949Z,57.01
2023-09-06T02:34:50.503Z,57.03
2023-09-06T02:35:23.441Z,56.92
2023-09-06T02:35:56.001Z,56.94
2023-09-06T02:36:28.496Z,57.01
2023-09-06T02:37:01.120Z,57.03
2023-09-06T02:37:34.161Z,56.93
2023-09-06T02:38:06.666Z,56.94
2023-09-06T02:38:39.160Z,56.97
2023-09-06T02:39:11.690Z,56.91
2023-09-06T02:39:44.229Z,56.96
2023-09-06T02:40:19.434Z,56.99
2023-09-06T02:40:53.469Z,57.04
2023-09-06T02:41:25.998Z,57.04
2023-09-06T02:42:00.418Z,57.05
2023-09-06T02:42:32.908Z,57.03
2023-09-06T02:43:06.033Z,56.99
2023-09-06T02:43:38.707Z,56.98
2023-09-06T02:44:11.222Z,56.90
2023-09-06T02:44:44.015Z,56.96
2023-09-06T02:45:16.586Z,57.04
2023-09-06T02:45:51.501Z,57.00
2023-09-06T02:46:32.961Z,57.00
2023-09-06T02:47:10.063Z,57.18
2023-09-06T02:47:51.761Z,57.05
2023-09-06T02:48:24.571Z,57.09
2023-09-06T02:48:59.732Z,57.10
2023-09-06T02:49:33.314Z,56.92
2023-09-06T02:50:07.689Z,56.84
2023-09-06T02:50:41.683Z,56.82
2023-09-06T02:51:17.148Z,56.80
2023-09-06T02:51:49.692Z,56.83
2023-09-06T02:52:29.582Z,56.89
2023-09-06T02:53:04.369Z,56.82
2023-09-06T02:53:37.315Z,56.82
2023-09-06T02:54:10.878Z,56.98
2023-09-06T02:54:43.715Z,57.02
2023-09-06T02:55:16.298Z,57.03
2023-09-06T02:55:55.186Z,56.88
2023-09-06T02:56:27.781Z,56.90
2023-09-06T02:57:00.316Z,56.83
2023-09-06T02:57:33.327Z,56.92
2023-09-06T02:58:06.126Z,56.97
2023-09-06T02:58:38.874Z,56.87
2023-09-06T02:59:16.784Z,57.17
2023-09-06T02:59:49.338Z,57.01
2023-09-06T03:00:24.866Z,56.90
2023-09-06T03:00:59.419Z,57.04
2023-09-06T03:01:32.778Z,57.12
2023-09-06T03:02:06.807Z,56.96
2023-09-06T03:02:39.441Z,56.77
2023-09-06T03:03:17.298Z,56.89
2023-09-06T03:03:54.740Z,57.21
2023-09-06T03:04:27.552Z,57.05
2023-09-06T03:05:05.386Z,57.37
2023-09-06T03:05:44.992Z,57.12
2023-09-06T03:06:19.324Z,56.78
2023-09-06T03:06:51.946Z,56.67
2023-09-06T03:07:24.457Z,56.76
2023-09-06T03:07:56.947Z,56.82
2023-09-06T03:08:30.306Z,56.87
2023-09-06T03:09:07.857Z,57.08
2023-09-06T03:09:40.649Z,57.19
2023-09-06T03:10:13.229Z,57.17
2023-09-06T03:10:45.944Z,57.23
2023-09-06T03:11:18.555Z,57.30
2023-09-06T03:11:52.848Z,57.54
2023-09-06T03:12:25.421Z,57.54
2023-09-06T03:12:59.056Z,57.14
2023-09-06T03:13:31.631Z,57.32
2023-09-06T03:14:05.208Z,57.52
2023-09-06T03:14:37.764Z,57.86
2023-09-06T03:15:12.748Z,57.65
2023-09-06T03:15:45.507Z,57.59
2023-09-06T03:16:18.350Z,57.25
2023-09-06T03:16:54.622Z,57.65
2023-09-06T03:17:27.265Z,57.85
2023-09-06T03:18:00.149Z,57.96
2023-09-06T03:18:32.901Z,57.79
2023-09-06T03:19:11.238Z,57.59
2023-09-06T03:19:44.339Z,57.41
2023-09-06T03:20:35.184Z,57.32
2023-09-06T03:21:08.131Z,57.65
2023-09-06T03:21:40.804Z,57.82
2023-09-06T03:22:13.839Z,57.65
2023-09-06T03:22:52.964Z,57.25
2023-09-06T03:23:26.561Z,57.46
2023-09-06T03:24:00.794Z,57.58
2023-09-06T03:24:34.651Z,57.62
2023-09-06T03:25:07.380Z,57.86
2023-09-06T03:25:41.484Z,58.06
2023-09-06T03:26:14.505Z,58.51
2023-09-06T03:26:47.083Z,58.56
2023-09-06T03:27:21.623Z,58.75
2023-09-06T03:28:01.392Z,58.69
2023-09-06T03:28:34.906Z,58.82
2023-09-06T03:29:11.594Z,59.05
2023-09-06T03:29:51.833Z,59.10
2023-09-06T03:30:25.290Z,58.37
2023-09-06T03:31:01.685Z,58.97
2023-09-06T03:31:35.677Z,59.17
2023-09-06T03:32:09.794Z,59.30
2023-09-06T03:32:43.772Z,58.55
2023-09-06T03:33:16.753Z,58.61
2023-09-06T03:33:49.251Z,59.20
2023-09-06T03:34:23.300Z,59.47
2023-09-06T03:34:56.163Z,58.92
2023-09-06T03:35:28.729Z,58.51
2023-09-06T03:36:01.281Z,58.66
2023-09-06T03:36:36.416Z,58.70
2023-09-06T03:37:12.420Z,58.27
2023-09-06T03:37:45.015Z,57.59
2023-09-06T03:38:19.095Z,58.14
2023-09-06T03:38:51.817Z,58.28
2023-09-06T03:39:30.208Z,58.96
2023-09-06T03:40:02.943Z,59.42
2023-09-06T03:40:39.656Z,59.66
2023-09-06T03:41:12.295Z,59.89
2023-09-06T03:41:47.335Z,58.95
2023-09-06T03:42:20.022Z,59.05
2023-09-06T03:42:56.164Z,58.79
2023-09-06T03:43:50.127Z,58.32
2023-09-06T03:44:22.740Z,58.47
2023-09-06T03:44:55.283Z,58.38
2023-09-06T03:45:28.848Z,58.68
2023-09-06T03:46:23.521Z,59.45
2023-09-06T03:46:58.823Z,58.93
2023-09-06T03:47:31.631Z,58.82
2023-09-06T03:48:06.360Z,59.38
2023-09-06T03:48:39.218Z,59.10
2023-09-06T03:49:14.471Z,58.91
2023-09-06T03:49:47.207Z,59.86
2023-09-06T03:50:22.580Z,60.09
2023-09-06T03:50:57.307Z,59.62
2023-09-06T03:51:29.895Z,60.32
2023-09-06T03:52:06.008Z,60.35
2023-09-06T03:52:40.322Z,60.44
2023-09-06T03:53:14.758Z,60.70
2023-09-06T03:53:48.925Z,60.57
2023-09-06T03:54:21.472Z,60.52
2023-09-06T03:54:54.580Z,60.90
2023-09-06T03:55:27.083Z,60.75
2023-09-06T03:56:01.696Z,60.59
2023-09-06T03:56:39.530Z,60.80
2023-09-06T03:57:14.408Z,61.06
2023-09-06T03:57:48.226Z,61.00
2023-09-06T03:58:20.764Z,60.64
2023-09-06T03:58:55.070Z,61.44
2023-09-06T03:59:27.681Z,61.52
2023-09-06T04:00:00.267Z,61.33
2023-09-06T04:00:32.883Z,61.29
2023-09-06T04:01:05.904Z,61.29
2023-09-06T04:01:38.997Z,61.11
2023-09-06T04:02:15.054Z,61.28
2023-09-06T04:02:49.204Z,61.31
2023-09-06T04:03:24.074Z,61.55
2023-09-06T04:03:57.011Z,61.62
2023-09-06T04:04:30.715Z,61.76
2023-09-06T04:05:03.291Z,61.79
2023-09-06T04:05:35.929Z,61.91
2023-09-06T04:06:08.416Z,61.69
2023-09-06T04:06:44.315Z,61.40
2023-09-06T04:07:16.906Z,61.60
2023-09-06T04:07:49.940Z,61.87
2023-09-06T04:08:26.891Z,61.97
2023-09-06T04:08:59.788Z,62.07
2023-09-06T04:09:38.497Z,62.24
2023-09-06T04:10:17.818Z,62.02
2023-09-06T04:10:50.875Z,62.20
2023-09-06T04:11:24.216Z,62.39
2023-09-06T04:12:00.374Z,62.15
2023-09-06T04:12:32.912Z,61.68
2023-09-06T04:13:09.472Z,61.93
2023-09-06T04:13:43.371Z,62.08
2023-09-06T04:14:15.925Z,62.37
2023-09-06T04:14:48.501Z,62.68
2023-09-06T04:15:25.023Z,62.71
2023-09-06T04:15:57.519Z,62.66
2023-09-06T04:16:32.725Z,62.66
2023-09-06T04:17:08.630Z,62.65
2023-09-06T04:17:42.138Z,62.77
2023-09-06T04:18:14.920Z,62.95
2023-09-06T04:18:47.611Z,62.87
2023-09-06T04:19:20.384Z,62.40
2023-09-06T04:19:52.962Z,62.23
2023-09-06T04:20:33.055Z,62.78
2023-09-06T04:21:09.947Z,62.74
2023-09-06T04:21:42.511Z,62.02
2023-09-06T04:22:16.907Z,62.27
2023-09-06T04:22:49.443Z,61.74
2023-09-06T04:23:21.990Z,62.70
2023-09-06T04:23:54.567Z,62.70
2023-09-06T04:24:27.058Z,61.63
2023-09-06T04:24:59.589Z,61.85
2023-09-06T04:25:34.571Z,61.76
2023-09-06T04:26:07.473Z,61.33
2023-09-06T04:26:40.033Z,61.67
2023-09-06T04:27:13.523Z,61.77
2023-09-06T04:27:47.384Z,60.89
2023-09-06T04:28:22.600Z,60.49
2023-09-06T04:28:55.093Z,60.61
2023-09-06T04:29:27.652Z,61.08
2023-09-06T04:30:00.297Z,60.88
2023-09-06T04:30:33.349Z,60.79
2023-09-06T04:31:06.119Z,61.16
2023-09-06T04:31:42.534Z,61.20
2023-09-06T04:32:18.603Z,60.98
2023-09-06T04:32:52.850Z,60.90
2023-09-06T04:33:25.845Z,61.39
2023-09-06T04:33:59.307Z,61.85
2023-09-06T04:34:31.813Z,61.96
2023-09-06T04:35:05.372Z,61.58
2023-09-06T04:35:40.080Z,61.59
2023-09-06T04:36:12.558Z,61.58
2023-09-06T04:36:45.045Z,61.67
2023-09-06T04:37:19.714Z,61.46
2023-09-06T04:37:52.262Z,61.36
2023-09-06T04:38:25.053Z,61.46
2023-09-06T04:38:57.729Z,61.97
2023-09-06T04:39:31.707Z,62.08
2023-09-06T04:40:05.924Z,62.09
2023-09-06T04:40:39.296Z,62.01
2023-09-06T04:41:11.935Z,62.10
2023-09-06T04:41:44.482Z,62.16
2023-09-06T04:42:17.029Z,62.20
2023-09-06T04:42:49.554Z,62.06
2023-09-06T04:43:23.541Z,62.18
2023-09-06T04:43:56.604Z,62.20
2023-09-06T04:44:29.206Z,62.33
2023-09-06T04:45:02.003Z,62.17
2023-09-06T04:45:34.659Z,62.25
2023-09-06T04:46:07.263Z,62.47
2023-09-06T04:46:39.774Z,62.51
2023-09-06T04:47:15.397Z,62.27
2023-09-06T04:47:47.982Z,61.35
2023-09-06T04:48:20.761Z,60.56
2023-09-06T04:48:53.352Z,60.85
2023-09-06T04:49:26.028Z,60.59
2023-09-06T04:49:59.297Z,60.30
2023-09-06T04:50:32.074Z,59.47
2023-09-06T04:51:05.970Z,59.01
2023-09-06T04:51:39.180Z,59.04
2023-09-06T04:52:11.669Z,58.81
2023-09-06T04:52:46.341Z,58.78
2023-09-06T04:53:19.546Z,58.99
2023-09-06T04:53:52.216Z,58.65
2023-09-06T04:54:24.753Z,58.44
2023-09-06T04:54:58.241Z,58.34
2023-09-06T04:55:35.024Z,58.61
2023-09-06T04:56:08.090Z,58.39
2023-09-06T04:56:41.664Z,58.03
2023-09-06T04:57:14.279Z,57.83
2023-09-06T04:57:50.809Z,57.85
2023-09-06T04:58:23.331Z,57.96
2023-09-06T04:58:57.119Z,57.94
2023-09-06T04:59:29.646Z,57.48
2023-09-06T05:00:02.363Z,57.31
2023-09-06T05:00:40.103Z,57.25
2023-09-06T05:01:12.899Z,57.17
2023-09-06T05:01:45.485Z,56.95
2023-09-06T05:02:18.005Z,56.89
2023-09-06T05:02:53.005Z,56.93
2023-09-06T05:03:25.668Z,56.79
2023-09-06T05:03:58.530Z,56.69
2023-09-06T05:04:31.913Z,56.58
2023-09-06T05:05:05.057Z,56.67
2023-09-06T05:05:38.341Z,56.60
2023-09-06T05:06:10.888Z,56.43
2023-09-06T05:06:43.748Z,56.45
2023-09-06T05:07:16.285Z,56.35
2023-09-06T05:07:48.826Z,56.34
2023-09-06T05:08:22.500Z,56.28
2023-09-06T05:08:55.071Z,56.15
2023-09-06T05:09:27.610Z,56.08
2023-09-06T05:10:00.190Z,55.98
2023-09-06T05:10:33.188Z,55.86
2023-09-06T05:11:07.638Z,56.02
2023-09-06T05:11:40.132Z,55.91
2023-09-06T05:12:12.670Z,55.83
2023-09-06T05:12:46.576Z,55.70
2023-09-06T05:13:19.608Z,55.69
2023-09-06T05:13:53.442Z,55.69
2023-09-06T05:14:26.092Z,55.45
2023-09-06T05:14:58.713Z,55.50
2023-09-06T05:15:31.221Z,55.48
2023-09-06T05:16:03.912Z,55.43
2023-09-06T05:16:36.667Z,55.33
2023-09-06T05:17:09.199Z,55.27
2023-09-06T05:18:15.618Z,55.11
2023-09-06T05:18:50.426Z,55.08
2023-09-06T05:19:28.704Z,55.05
2023-09-06T05:20:34.278Z,54.85
2023-09-06T05:21:07.099Z,54.89
2023-09-06T05:21:39.649Z,54.78
2023-09-06T05:22:12.130Z,54.45
2023-09-06T05:22:44.941Z,54.60
2023-09-06T05:23:18.292Z,54.72
2023-09-06T05:23:50.824Z,54.71
2023-09-06T05:24:23.362Z,54.62
2023-09-06T05:24:55.943Z,54.51
2023-09-06T05:25:28.574Z,54.37
2023-09-06T05:26:01.116Z,54.46
2023-09-06T05:26:36.860Z,54.43
2023-09-06T05:27:09.378Z,54.27
2023-09-06T05:27:41.908Z,54.40
2023-09-06T05:28:16.354Z,54.38
2023-09-06T05:28:50.099Z,54.25
2023-09-06T05:29:22.735Z,54.18
2023-09-06T05:29:57.200Z,54.12
2023-09-06T05:30:30.043Z,54.09
2023-09-06T05:31:03.168Z,54.04
2023-09-06T05:31:35.732Z,53.95
2023-09-06T05:32:08.856Z,53.96
2023-09-06T05:32:41.722Z,53.81
2023-09-06T05:33:15.442Z,53.73
2023-09-06T05:33:49.096Z,53.79
2023-09-06T05:34:21.662Z,53.69
2023-09-06T05:34:54.186Z,53.74
2023-09-06T05:35:27.388Z,53.69
2023-09-06T05:35:59.885Z,53.56
2023-09-06T05:36:32.398Z,53.51
2023-09-06T05:37:05.152Z,53.19
2023-09-06T05:37:39.207Z,53.08
2023-09-06T05:38:11.831Z,52.95
2023-09-06T05:38:44.359Z,53.07
2023-09-06T05:39:16.861Z,53.10
2023-09-06T05:39:49.396Z,53.20
2023-09-06T05:40:24.416Z,53.28
2023-09-06T05:40:58.916Z,53.17
2023-09-06T05:41:32.922Z,53.09
2023-09-06T05:42:05.576Z,53.10
2023-09-06T05:42:38.346Z,52.91
2023-09-06T05:43:10.976Z,53.13
2023-09-06T05:43:43.558Z,52.89
2023-09-06T05:44:16.131Z,52.99
2023-09-06T05:44:48.660Z,52.63
2023-09-06T05:45:22.658Z,52.58
2023-09-06T05:45:55.207Z,52.84
2023-09-06T05:46:33.829Z,52.72
2023-09-06T05:47:06.745Z,52.61
2023-09-06T05:47:39.739Z,52.67
2023-09-06T05:48:12.685Z,52.55
2023-09-06T05:48:45.486Z,52.53
2023-09-06T05:49:18.205Z,52.58
2023-09-06T05:49:57.081Z,52.11
2023-09-06T05:50:29.716Z,51.91
2023-09-06T05:51:02.314Z,51.89
2023-09-06T05:51:35.068Z,52.06
2023-09-06T05:52:07.665Z,51.89
2023-09-06T05:52:40.152Z,51.80
2023-09-06T05:53:12.790Z,51.96
2023-09-06T05:53:45.374Z,52.24
2023-09-06T05:54:17.930Z,52.01
2023-09-06T05:54:51.421Z,52.00
2023-09-06T05:55:25.327Z,51.83
2023-09-06T05:55:58.785Z,51.55
2023-09-06T05:56:31.352Z,51.45
2023-09-06T05:57:05.763Z,51.62
2023-09-06T05:57:39.277Z,51.72
2023-09-06T05:58:11.781Z,51.48
2023-09-06T05:58:44.347Z,51.74
2023-09-06T05:59:17.775Z,52.17
2023-09-06T05:59:50.395Z,51.69
2023-09-06T06:00:23.838Z,51.50
2023-09-06T06:00:57.872Z,51.53
2023-09-06T06:01:30.443Z,51.46
2023-09-06T06:02:03.911Z,51.18
2023-09-06T06:02:36.557Z,51.14
2023-09-06T06:03:09.320Z,51.19
2023-09-06T06:03:41.899Z,51.32
2023-09-06T06:04:15.182Z,51.34
2023-09-06T06:04:47.832Z,51.63
2023-09-06T06:05:20.401Z,51.24
2023-09-06T06:05:52.968Z,51.35
2023-09-06T06:06:25.488Z,51.43
2023-09-06T06:06:58.039Z,51.48
2023-09-06T06:07:31.183Z,51.48
2023-09-06T06:08:04.020Z,51.70
2023-09-06T06:08:36.645Z,51.40
2023-09-06T06:09:14.759Z,50.93
2023-09-06T06:09:47.342Z,50.81
2023-09-06T06:10:19.873Z,51.08
2023-09-06T06:10:53.470Z,51.26
2023-09-06T06:11:28.394Z,51.15
2023-09-06T06:12:02.118Z,51.07
2023-09-06T06:12:35.294Z,51.01
2023-09-06T06:13:09.701Z,50.96
2023-09-06T06:13:53.203Z,50.88
2023-09-06T06:14:34.113Z,50.87
2023-09-06T06:15:09.710Z,50.96
2023-09-06T06:15:42.444Z,51.07
2023-09-06T06:16:16.137Z,51.03
2023-09-06T06:16:48.800Z,50.58
2023-09-06T06:17:21.421Z,50.62
2023-09-06T06:17:54.046Z,50.86
2023-09-06T06:18:27.792Z,50.62
2023-09-06T06:19:01.068Z,50.46
2023-09-06T06:19:34.378Z,50.27
2023-09-06T06:20:08.907Z,50.12
2023-09-06T06:20:44.405Z,50.26
2023-09-06T06:21:18.955Z,50.22
2023-09-06T06:21:52.027Z,50.21
2023-09-06T06:22:24.662Z,50.43
2023-09-06T06:22:57.225Z,50.25
2023-09-06T06:23:31.127Z,50.19
2023-09-06T06:24:04.139Z,49.93
2023-09-06T06:24:36.864Z,50.04
2023-09-06T06:25:11.800Z,50.06
2023-09-06T06:25:44.492Z,50.13
2023-09-06T06:26:20.536Z,50.03
2023-09-06T06:26:53.220Z,50.09
2023-09-06T06:27:26.286Z,50.05
2023-09-06T06:27:58.998Z,50.02
2023-09-06T06:28:32.016Z,50.01
2023-09-06T06:29:07.668Z,49.77
2023-09-06T06:29:40.424Z,49.92
2023-09-06T06:30:13.300Z,49.79
2023-09-06T06:30:47.920Z,50.03
2023-09-06T06:31:23.434Z,49.96
2023-09-06T06:31:57.917Z,50.01
2023-09-06T06:32:30.567Z,50.11
2023-09-06T06:33:06.613Z,49.66
2023-09-06T06:33:40.805Z,50.03
2023-09-06T06:34:15.302Z,50.12
2023-09-06T06:34:51.106Z,49.83
2023-09-06T06:35:24.122Z,49.58
2023-09-06T06:35:56.715Z,49.64
2023-09-06T06:36:32.412Z,49.56
2023-09-06T06:37:05.348Z,49.56
2023-09-06T06:37:37.878Z,49.45
2023-09-06T06:38:10.452Z,49.56
2023-09-06T06:38:47.424Z,49.44
2023-09-06T06:39:19.994Z,49.00
2023-09-06T06:39:52.487Z,49.19
2023-09-06T06:40:25.601Z,49.29
2023-09-06T06:40:58.553Z,49.29
2023-09-06T06:41:32.001Z,49.22
2023-09-06T06:42:04.654Z,49.05
2023-09-06T06:42:37.181Z,48.74
2023-09-06T06:43:09.683Z,48.82
2023-09-06T06:43:42.225Z,48.45
2023-09-06T06:44:14.909Z,48.51
2023-09-06T06:44:48.662Z,48.35
2023-09-06T06:45:21.243Z,48.33
2023-09-06T06:45:56.163Z,48.45
2023-09-06T06:46:29.973Z,48.09
2023-09-06T06:47:02.547Z,48.12
2023-09-06T06:47:35.532Z,48.28
2023-09-06T06:48:08.195Z,48.51
2023-09-06T06:48:40.781Z,48.68
2023-09-06T06:49:13.456Z,48.16
2023-09-06T06:49:45.986Z,48.23
2023-09-06T06:50:19.358Z,48.02
2023-09-06T06:50:53.116Z,48.11
2023-09-06T06:51:33.016Z,48.48
2023-09-06T06:52:05.816Z,48.59
2023-09-06T06:52:38.956Z,48.08
2023-09-06T06:53:11.550Z,48.20
2023-09-06T06:53:47.503Z,48.33
2023-09-06T06:54:20.818Z,48.32
2023-09-06T06:54:53.351Z,48.23
2023-09-06T06:55:25.874Z,48.08
2023-09-06T06:55:58.804Z,48.20
2023-09-06T06:56:31.336Z,47.90
2023-09-06T06:57:04.127Z,47.86
2023-09-06T06:57:37.487Z,47.93
2023-09-06T06:58:09.984Z,47.89
2023-09-06T06:58:42.551Z,48.04
2023-09-06T06:59:15.206Z,48.09
2023-09-06T06:59:47.854Z,48.10
2023-09-06T07:00:20.389Z,48.18
2023-09-06T07:00:52.951Z,48.10
2023-09-06T07:01:26.154Z,48.02
2023-09-06T07:01:58.836Z,48.30
2023-09-06T07:02:31.856Z,48.20
2023-09-06T07:03:10.351Z,48.09
2023-09-06T07:03:42.969Z,48.06
2023-09-06T07:04:15.602Z,48.06
2023-09-06T07:04:48.694Z,48.35
2023-09-06T07:05:21.330Z,48.44
2023-09-06T07:05:55.131Z,48.56
2023-09-06T07:06:30.348Z,48.34
2023-09-06T07:07:03.029Z,48.19
2023-09-06T07:07:35.570Z,48.44
2023-09-06T07:08:08.219Z,48.13
2023-09-06T07:08:40.727Z,48.16
2023-09-06T07:09:13.234Z,47.80
2023-09-06T07:09:45.787Z,47.57
2023-09-06T07:10:19.060Z,47.70
2023-09-06T07:10:51.637Z,47.54
2023-09-06T07:11:24.318Z,47.54
2023-09-06T07:11:56.875Z,47.44
2023-09-06T07:12:29.361Z,47.21
2023-09-06T07:13:01.995Z,47.12
2023-09-06T07:13:35.842Z,47.24
2023-09-06T07:14:08.472Z,47.19
2023-09-06T07:14:40.999Z,47.40
2023-09-06T07:15:14.128Z,47.61
2023-09-06T07:15:46.768Z,47.32
2023-09-06T07:16:21.119Z,47.32
2023-09-06T07:16:54.230Z,47.72
2023-09-06T07:17:26.840Z,47.40